createdAt,value
2023-05-25T00:01:01.382Z,94.25
2023-05-25T00:01:52.063Z,94.87
2023-05-25T00:02:50.203Z,94.46
2023-05-25T00:03:50.096Z,94.56
2023-05-25T00:04:50.022Z,94.71
2023-05-25T00:05:49.998Z,95.32
2023-05-25T00:06:49.983Z,94.87
2023-05-25T00:07:49.991Z,95.07
2023-05-25T00:08:49.975Z,94.92
2023-05-25T00:09:49.969Z,94.87
2023-05-25T00:10:49.966Z,95.18
2023-05-25T00:11:49.971Z,95.12
2023-05-25T00:12:49.943Z,95.22
2023-05-25T00:13:49.941Z,95.18
2023-05-25T00:14:49.947Z,95.02
2023-05-25T00:15:49.947Z,95.22
2023-05-25T00:16:49.989Z,95.64
2023-05-25T00:17:50.018Z,95.53
2023-05-25T00:18:49.913Z,95.43
2023-05-25T00:19:49.996Z,95.95
2023-05-25T00:21:32.189Z,95.43
2023-05-25T00:22:32.184Z,94.85
2023-05-25T00:23:32.173Z,95.53
2023-05-25T00:24:32.165Z,95.57
2023-05-25T00:25:32.149Z,95.95
2023-05-25T00:26:32.149Z,96.15
2023-05-25T00:27:32.137Z,95.89
2023-05-25T00:28:32.145Z,95.74
2023-05-25T00:29:32.125Z,95.64
2023-05-25T00:30:32.129Z,95.68
2023-05-25T00:31:32.158Z,96.05
2023-05-25T00:32:32.134Z,95.74
2023-05-25T00:33:33.189Z,95.32
2023-05-25T00:34:33.191Z,95.12
2023-05-25T00:35:33.177Z,95.12
2023-05-25T00:36:33.181Z,94.92
2023-05-25T00:37:33.149Z,95.06
2023-05-25T00:38:33.157Z,95.17
2023-05-25T00:39:33.164Z,95.17
2023-05-25T00:40:33.121Z,95.68
2023-05-25T00:41:33.156Z,95.57
2023-05-25T00:42:33.126Z,95.89
2023-05-25T00:43:33.103Z,95.57
2023-05-25T00:44:33.108Z,95.31
2023-05-25T00:45:33.084Z,95.31
2023-05-25T00:46:33.107Z,95.42
2023-05-25T00:47:33.208Z,95.62
2023-05-25T00:48:33.080Z,95.62
2023-05-25T00:49:33.084Z,96.24
2023-05-25T00:50:33.057Z,96.03
2023-05-25T00:51:33.034Z,95.94
2023-05-25T00:52:33.048Z,97.17
2023-05-25T00:53:33.027Z,96.97
2023-05-25T00:54:33.040Z,96.34
2023-05-25T00:55:33.023Z,96.45
2023-05-25T00:56:33.006Z,96.97
2023-05-25T00:57:33.022Z,96.34
2023-05-25T00:58:33.001Z,96.97
2023-05-25T00:59:32.988Z,97.07
2023-05-25T01:00:32.981Z,96.86
2023-05-25T01:01:33.007Z,97.07
2023-05-25T01:02:33.089Z,96.76
2023-05-25T01:03:33.058Z,97.13
2023-05-25T01:04:32.955Z,96.92
2023-05-25T01:05:32.939Z,96.76
2023-05-25T01:06:32.930Z,96.51
2023-05-25T01:07:32.933Z,96.97
2023-05-25T01:08:32.925Z,96.55
2023-05-25T01:09:32.900Z,96.66
2023-05-25T01:10:32.919Z,96.72
2023-05-25T01:11:32.896Z,96.72
2023-05-25T01:12:32.890Z,96.82
2023-05-25T01:13:33.782Z,97.07
2023-05-25T01:14:32.869Z,97.13
2023-05-25T01:15:32.859Z,97.07
2023-05-25T01:16:33.740Z,96.24
2023-05-25T01:17:32.878Z,96.76
2023-05-25T01:18:32.843Z,96.76
2023-05-25T01:19:32.838Z,97.28
2023-05-25T01:20:32.878Z,97.07
2023-05-25T01:21:32.818Z,97.07
2023-05-25T01:22:32.805Z,96.86
2023-05-25T01:23:32.820Z,96.97
2023-05-25T01:24:32.793Z,97.07
2023-05-25T01:25:32.778Z,97.01
2023-05-25T01:26:32.837Z,97.11
2023-05-25T01:27:32.790Z,97.01
2023-05-25T01:28:32.757Z,97.01
2023-05-25T01:29:32.787Z,97.01
2023-05-25T01:30:32.761Z,96.70
2023-05-25T01:31:32.761Z,96.80
2023-05-25T01:32:32.779Z,96.66
2023-05-25T01:33:32.730Z,97.01
2023-05-25T01:34:32.706Z,96.70
2023-05-25T01:35:32.717Z,96.59
2023-05-25T01:36:32.688Z,96.91
2023-05-25T01:37:32.699Z,96.70
2023-05-25T01:38:33.264Z,97.26
2023-05-25T01:39:32.659Z,97.11
2023-05-25T01:40:32.668Z,97.53
2023-05-25T01:41:32.656Z,97.22
2023-05-25T01:42:32.647Z,97.63
2023-05-25T01:43:33.238Z,97.63
2023-05-25T01:44:32.640Z,97.63
2023-05-25T01:45:32.623Z,97.63
2023-05-25T01:46:32.693Z,97.53
2023-05-25T01:47:32.658Z,97.22
2023-05-25T01:48:32.588Z,97.42
2023-05-25T01:49:32.592Z,97.32
2023-05-25T01:50:32.591Z,97.11
2023-05-25T01:51:32.572Z,97.42
2023-05-25T01:52:32.589Z,97.11
2023-05-25T01:53:32.572Z,97.74
2023-05-25T01:54:32.552Z,97.63
2023-05-25T01:55:32.536Z,97.11
2023-05-25T01:56:32.534Z,96.76
2023-05-25T01:57:32.546Z,97.06
2023-05-25T01:58:32.524Z,96.95
2023-05-25T01:59:32.515Z,96.85
2023-05-25T02:00:32.510Z,97.16
2023-05-25T02:01:32.505Z,96.95
2023-05-25T02:02:32.534Z,97.06
2023-05-25T02:03:32.469Z,97.16
2023-05-25T02:04:32.498Z,97.72
2023-05-25T02:05:32.487Z,97.62
2023-05-25T02:06:32.444Z,97.72
2023-05-25T02:07:32.437Z,97.72
2023-05-25T02:08:32.443Z,97.20
2023-05-25T02:09:32.424Z,96.79
2023-05-25T02:10:32.429Z,96.95
2023-05-25T02:11:32.399Z,97.62
2023-05-25T02:12:32.405Z,97.57
2023-05-25T02:13:32.388Z,97.62
2023-05-25T02:14:32.397Z,97.47
2023-05-25T02:15:32.458Z,97.41
2023-05-25T02:16:32.418Z,97.72
2023-05-25T02:17:32.412Z,97.78
2023-05-25T02:18:32.367Z,98.24
2023-05-25T02:19:32.353Z,98.50
2023-05-25T02:20:32.381Z,98.30
2023-05-25T02:21:32.355Z,98.19
2023-05-25T02:22:32.326Z,98.19
2023-05-25T02:23:32.324Z,98.19
2023-05-25T02:24:32.324Z,98.40
2023-05-25T02:25:32.306Z,97.88
2023-05-25T02:26:32.297Z,97.67
2023-05-25T02:27:32.295Z,97.88
2023-05-25T02:28:32.293Z,98.19
2023-05-25T02:29:33.282Z,97.88
2023-05-25T02:30:32.271Z,97.99
2023-05-25T02:31:32.303Z,97.67
2023-05-25T02:32:32.304Z,97.67
2023-05-25T02:33:32.267Z,97.57
2023-05-25T02:34:32.247Z,97.57
2023-05-25T02:35:32.225Z,97.88
2023-05-25T02:36:32.232Z,97.52
2023-05-25T02:37:32.218Z,97.93
2023-05-25T02:38:32.203Z,98.13
2023-05-25T02:39:32.209Z,97.62
2023-05-25T02:40:32.204Z,97.88
2023-05-25T02:41:32.197Z,97.72
2023-05-25T02:42:32.173Z,97.62
2023-05-25T02:43:32.150Z,97.93
2023-05-25T02:44:32.132Z,97.62
2023-05-25T02:45:32.159Z,97.72
2023-05-25T02:46:32.151Z,97.36
2023-05-25T02:47:32.149Z,97.36
2023-05-25T02:48:32.136Z,97.62
2023-05-25T02:49:32.113Z,98.03
2023-05-25T02:50:32.097Z,97.72
2023-05-25T02:51:32.081Z,97.72
2023-05-25T02:52:32.084Z,97.72
2023-05-25T02:53:32.082Z,97.52
2023-05-25T02:54:32.060Z,97.62
2023-05-25T02:55:32.051Z,97.41
2023-05-25T02:56:32.104Z,97.41
2023-05-25T02:57:32.042Z,97.52
2023-05-25T02:58:32.021Z,97.93
2023-05-25T02:59:32.013Z,97.72
2023-05-25T03:00:32.018Z,97.62
2023-05-25T03:01:32.079Z,97.87
2023-05-25T03:02:32.023Z,97.52
2023-05-25T03:03:32.053Z,97.83
2023-05-25T03:04:32.050Z,97.31
2023-05-25T03:05:32.785Z,97.93
2023-05-25T03:06:31.956Z,97.66
2023-05-25T03:07:31.959Z,97.52
2023-05-25T03:08:31.943Z,97.20
2023-05-25T03:09:31.931Z,97.10
2023-05-25T03:10:31.930Z,97.10
2023-05-25T03:11:31.927Z,97.52
2023-05-25T03:12:31.922Z,97.10
2023-05-25T03:13:31.912Z,97.31
2023-05-25T03:14:31.912Z,97.52
2023-05-25T03:15:31.883Z,97.10
2023-05-25T03:16:31.911Z,97.66
2023-05-25T03:17:31.912Z,97.77
2023-05-25T03:18:31.884Z,97.56
2023-05-25T03:19:31.905Z,97.77
2023-05-25T03:20:31.885Z,97.72
2023-05-25T03:21:31.850Z,97.66
2023-05-25T03:22:31.841Z,97.83
2023-05-25T03:23:31.841Z,97.52
2023-05-25T03:24:31.819Z,97.97
2023-05-25T03:25:31.823Z,97.93
2023-05-25T03:26:32.803Z,98.28
2023-05-25T03:27:31.822Z,98.13
2023-05-25T03:28:31.788Z,98.18
2023-05-25T03:29:31.787Z,97.97
2023-05-25T03:30:32.790Z,98.24
2023-05-25T03:31:31.790Z,98.13
2023-05-25T03:32:31.770Z,98.28
2023-05-25T03:33:31.755Z,98.55
2023-05-25T03:34:31.759Z,98.34
2023-05-25T03:35:31.736Z,97.72
2023-05-25T03:36:31.732Z,97.62
2023-05-25T03:37:31.727Z,96.79
2023-05-25T03:38:31.711Z,96.69
2023-05-25T03:39:31.712Z,97.26
2023-05-25T03:40:31.693Z,96.79
2023-05-25T03:41:31.696Z,97.00
2023-05-25T03:42:31.672Z,97.20
2023-05-25T03:43:31.683Z,97.20
2023-05-25T03:44:31.671Z,96.95
2023-05-25T03:45:31.672Z,96.95
2023-05-25T03:46:31.662Z,97.31
2023-05-25T03:47:31.685Z,97.10
2023-05-25T03:48:31.625Z,96.79
2023-05-25T03:49:31.616Z,95.92
2023-05-25T03:50:31.612Z,96.17
2023-05-25T03:51:31.617Z,96.44
2023-05-25T03:52:34.216Z,95.92
2023-05-25T03:53:31.616Z,96.12
2023-05-25T03:54:31.587Z,96.12
2023-05-25T03:55:31.552Z,96.91
2023-05-25T03:56:32.569Z,97.42
2023-05-25T03:57:31.600Z,97.28
2023-05-25T03:58:31.561Z,97.42
2023-05-25T03:59:31.541Z,97.74
2023-05-25T04:00:31.555Z,98.05
2023-05-25T04:01:31.529Z,97.63
2023-05-25T04:02:32.347Z,98.35
2023-05-25T04:03:32.514Z,98.66
2023-05-25T04:04:31.596Z,99.43
2023-05-25T04:05:31.493Z,99.18
2023-05-25T04:06:31.830Z,99.02
2023-05-25T04:07:31.497Z,99.43
2023-05-25T04:08:31.474Z,99.64
2023-05-25T04:09:31.457Z,99.80
2023-05-25T04:10:31.456Z,99.85
2023-05-25T04:11:32.453Z,99.54
2023-05-25T04:12:31.454Z,99.85
2023-05-25T04:13:31.450Z,99.49
2023-05-25T04:14:31.424Z,99.49
2023-05-25T04:15:31.410Z,99.70
2023-05-25T04:16:31.479Z,99.99
2023-05-25T04:17:31.457Z,99.99
2023-05-25T04:18:31.394Z,99.99
2023-05-25T04:19:31.376Z,99.99
2023-05-25T04:20:31.446Z,99.95
2023-05-25T04:21:32.232Z,99.99
2023-05-25T04:22:31.355Z,99.99
2023-05-25T04:23:31.357Z,99.99
2023-05-25T04:24:31.351Z,99.86
2023-05-25T04:25:31.344Z,99.76
2023-05-25T04:26:31.317Z,99.65
2023-05-25T04:27:31.334Z,99.44
2023-05-25T04:28:31.320Z,99.24
2023-05-25T04:29:31.329Z,99.14
2023-05-25T04:30:31.312Z,99.34
2023-05-25T04:31:31.354Z,98.78
2023-05-25T04:32:31.368Z,98.78
2023-05-25T04:33:31.296Z,98.11
2023-05-25T04:34:31.272Z,97.39
2023-05-25T04:35:31.247Z,97.50
2023-05-25T04:36:31.236Z,96.98
2023-05-25T04:37:31.237Z,95.90
2023-05-25T04:38:32.226Z,95.90
2023-05-25T04:39:31.211Z,95.03
2023-05-25T04:40:31.240Z,94.42
2023-05-25T04:41:31.211Z,93.24
2023-05-25T04:42:31.196Z,94.17
2023-05-25T04:43:31.218Z,92.82
2023-05-25T04:44:31.311Z,92.61
2023-05-25T04:45:31.188Z,92.61
2023-05-25T04:46:31.238Z,92.21
2023-05-25T04:47:31.164Z,92.37
2023-05-25T04:48:31.170Z,92.47
2023-05-25T04:49:31.137Z,91.75
2023-05-25T04:50:31.141Z,91.81
2023-05-25T04:51:31.129Z,91.91
2023-05-25T04:52:31.111Z,90.43
2023-05-25T04:53:31.104Z,90.43
2023-05-25T04:54:31.121Z,89.71
2023-05-25T04:55:31.092Z,89.87
2023-05-25T04:56:31.150Z,90.39
2023-05-25T04:57:31.075Z,90.18
2023-05-25T04:58:31.071Z,89.94
2023-05-25T04:59:31.060Z,89.62
2023-05-25T05:00:31.051Z,89.48
2023-05-25T05:01:31.235Z,88.72
2023-05-25T05:02:31.050Z,88.06
2023-05-25T05:03:31.059Z,88.20
2023-05-25T05:04:31.027Z,87.69
2023-05-25T05:05:31.022Z,88.37
2023-05-25T05:06:31.016Z,87.40
2023-05-25T05:07:30.988Z,86.68
2023-05-25T05:08:30.975Z,86.48
2023-05-25T05:09:30.988Z,86.44
2023-05-25T05:10:30.964Z,85.93
2023-05-25T05:11:30.966Z,85.89
2023-05-25T05:12:30.949Z,85.99
2023-05-25T05:13:30.933Z,85.85
2023-05-25T05:14:31.736Z,84.72
2023-05-25T05:15:30.976Z,84.27
2023-05-25T05:16:30.958Z,84.17
2023-05-25T05:17:31.079Z,84.52
2023-05-25T05:18:30.892Z,84.00
2023-05-25T05:19:30.931Z,84.68
2023-05-25T05:20:30.892Z,83.69
2023-05-25T05:21:30.871Z,84.61
2023-05-25T05:22:30.860Z,85.17
2023-05-25T05:23:30.869Z,85.89
2023-05-25T05:24:30.850Z,85.68
2023-05-25T05:25:31.818Z,86.19
2023-05-25T05:26:34.250Z,85.99
2023-05-25T05:27:31.832Z,86.33
2023-05-25T05:28:30.868Z,86.75
2023-05-25T05:29:30.799Z,86.75
2023-05-25T05:30:30.811Z,86.71
2023-05-25T05:31:30.856Z,86.25
2023-05-25T05:32:30.813Z,86.05
2023-05-25T05:33:30.834Z,84.78
2023-05-25T05:34:30.782Z,85.71
2023-05-25T05:35:30.841Z,85.66
2023-05-25T05:36:32.002Z,84.50
2023-05-25T05:37:31.778Z,83.78
2023-05-25T05:38:30.734Z,84.19
2023-05-25T05:39:30.762Z,82.71
2023-05-25T05:40:30.742Z,82.92
2023-05-25T05:41:30.699Z,82.71
2023-05-25T05:42:30.711Z,82.82
2023-05-25T05:43:30.686Z,82.82
2023-05-25T05:44:30.692Z,82.48
2023-05-25T05:45:30.710Z,83.09
2023-05-25T05:46:30.771Z,82.64
2023-05-25T05:47:30.699Z,82.37
2023-05-25T05:48:30.643Z,82.78
2023-05-25T05:49:30.700Z,82.57
2023-05-25T05:50:30.622Z,83.19
2023-05-25T05:51:30.621Z,84.25
2023-05-25T05:52:30.640Z,84.66
2023-05-25T05:53:30.601Z,84.05
2023-05-25T05:54:30.609Z,84.80
2023-05-25T05:55:30.590Z,85.42
2023-05-25T05:56:30.595Z,86.24
2023-05-25T05:57:30.603Z,85.93
2023-05-25T05:58:30.576Z,86.24
2023-05-25T05:59:30.555Z,86.14
2023-05-25T06:00:30.591Z,85.89
2023-05-25T06:01:30.521Z,85.69
2023-05-25T06:02:30.605Z,85.48
2023-05-25T06:03:30.557Z,85.24
2023-05-25T06:04:30.543Z,85.14
2023-05-25T06:05:30.511Z,84.79
2023-05-25T06:06:30.520Z,83.87
2023-05-25T06:07:30.562Z,84.38
2023-05-25T06:08:30.465Z,85.40
2023-05-25T06:09:30.495Z,85.10
2023-05-25T06:10:30.457Z,85.50
2023-05-25T06:11:30.462Z,85.36
2023-05-25T06:12:30.436Z,84.34
2023-05-25T06:13:31.345Z,84.03
2023-05-25T06:14:30.435Z,84.24
2023-05-25T06:15:30.452Z,84.34
2023-05-25T06:16:30.434Z,84.55
2023-05-25T06:17:30.505Z,84.85
2023-05-25T06:18:30.394Z,84.81
2023-05-25T06:19:30.405Z,83.75
2023-05-25T06:20:30.485Z,83.54
2023-05-25T06:21:30.377Z,84.00
2023-05-25T06:22:30.383Z,84.65
2023-05-25T06:23:30.467Z,85.02
2023-05-25T06:24:30.364Z,83.24
2023-05-25T06:25:30.389Z,84.16
2023-05-25T06:26:30.354Z,83.10
2023-05-25T06:27:30.318Z,81.25
2023-05-25T06:28:30.327Z,79.24
2023-05-25T06:29:30.330Z,77.78
2023-05-25T06:30:30.816Z,75.63
2023-05-25T06:31:30.315Z,74.88
2023-05-25T06:32:30.314Z,74.34
2023-05-25T06:33:30.285Z,72.65
2023-05-25T06:34:30.262Z,70.79
2023-05-25T06:35:30.250Z,72.48
2023-05-25T06:36:32.149Z,73.22
2023-05-25T06:37:30.235Z,72.11
2023-05-25T06:38:30.251Z,74.31
2023-05-25T06:39:31.784Z,75.91
2023-05-25T06:40:30.272Z,75.26
2023-05-25T06:41:30.243Z,74.99
2023-05-25T06:42:30.212Z,71.84
2023-05-25T06:43:30.181Z,70.92
2023-05-25T06:44:30.211Z,71.97
2023-05-25T06:45:30.163Z,71.53
2023-05-25T06:46:31.214Z,71.64
2023-05-25T06:47:31.231Z,71.36
2023-05-25T06:48:31.024Z,71.73
2023-05-25T06:49:30.827Z,70.72
2023-05-25T06:50:30.198Z,70.45
2023-05-25T06:51:30.126Z,69.17
2023-05-25T06:52:30.115Z,68.26
2023-05-25T06:53:30.121Z,68.33
2023-05-25T06:54:30.142Z,68.10
2023-05-25T06:55:30.161Z,66.31
2023-05-25T06:56:30.124Z,64.90
2023-05-25T06:57:30.094Z,65.10
2023-05-25T06:58:30.082Z,65.03
2023-05-25T06:59:30.070Z,66.50
2023-05-25T07:00:30.074Z,67.14
2023-05-25T07:01:30.096Z,67.96
2023-05-25T07:02:30.093Z,68.16
2023-05-25T07:03:30.021Z,67.72
2023-05-25T07:04:30.049Z,66.55
2023-05-25T07:05:30.091Z,65.64
2023-05-25T07:06:31.847Z,64.97
2023-05-25T07:07:30.001Z,64.23
2023-05-25T07:08:29.997Z,64.70
2023-05-25T07:09:30.017Z,66.14
2023-05-25T07:10:29.960Z,66.35
2023-05-25T07:11:30.870Z,65.53
2023-05-25T07:12:29.944Z,65.50
2023-05-25T07:13:29.952Z,65.27
2023-05-25T07:14:29.930Z,64.10
2023-05-25T07:15:29.980Z,62.85
2023-05-25T07:16:29.975Z,62.65
2023-05-25T07:17:29.959Z,63.29
2023-05-25T07:18:29.902Z,62.85
2023-05-25T07:19:29.893Z,62.32
2023-05-25T07:20:29.964Z,61.89
2023-05-25T07:21:29.904Z,60.22
2023-05-25T07:22:30.873Z,58.62
2023-05-25T07:23:29.932Z,58.20
2023-05-25T07:24:29.859Z,57.04
2023-05-25T07:25:29.863Z,55.58
2023-05-25T07:26:29.882Z,54.62
2023-05-25T07:27:29.846Z,55.80
2023-05-25T07:28:29.848Z,56.84
2023-05-25T07:29:29.841Z,55.60
2023-05-25T07:30:29.815Z,56.59
2023-05-25T07:31:29.853Z,57.62
2023-05-25T07:32:29.841Z,59.22
2023-05-25T07:33:29.772Z,58.88
2023-05-25T07:34:30.779Z,58.25
2023-05-25T07:35:29.779Z,58.71
2023-05-25T07:36:29.773Z,59.28
2023-05-25T07:37:29.768Z,58.68
2023-05-25T07:38:29.758Z,58.88
2023-05-25T07:39:30.354Z,59.22
2023-05-25T07:40:29.733Z,60.02
2023-05-25T07:41:29.750Z,59.42
2023-05-25T07:42:30.712Z,59.42
2023-05-25T07:43:29.737Z,59.57
2023-05-25T07:44:29.699Z,59.80
2023-05-25T07:45:29.695Z,60.38
2023-05-25T07:46:29.708Z,60.22
2023-05-25T07:47:29.814Z,59.75
2023-05-25T07:48:29.684Z,60.21
2023-05-25T07:49:29.673Z,62.02
2023-05-25T07:50:31.888Z,61.92
2023-05-25T07:51:30.641Z,60.35
2023-05-25T07:52:29.637Z,59.48
2023-05-25T07:53:29.654Z,58.48
2023-05-25T07:54:29.655Z,59.31
2023-05-25T07:55:29.620Z,59.31
2023-05-25T07:56:29.635Z,59.72
2023-05-25T07:57:29.588Z,59.01
2023-05-25T07:58:29.617Z,58.91
2023-05-25T07:59:29.593Z,59.80
2023-05-25T08:00:30.368Z,59.57
2023-05-25T08:01:29.605Z,60.51
2023-05-25T08:02:29.664Z,60.91
2023-05-25T08:03:47.407Z,61.65
2023-05-25T08:04:31.664Z,62.35
2023-05-25T08:05:29.581Z,62.55
2023-05-25T08:06:29.575Z,62.02
2023-05-25T08:07:31.295Z,61.35
2023-05-25T08:08:29.537Z,62.92
2023-05-25T08:09:29.509Z,63.12
2023-05-25T08:10:32.458Z,62.38
2023-05-25T08:11:29.485Z,62.18
2023-05-25T08:12:43.038Z,62.12
2023-05-25T08:13:31.475Z,61.35
2023-05-25T08:14:30.287Z,60.81
2023-05-25T08:15:29.451Z,61.98
2023-05-25T08:16:29.483Z,62.68
2023-05-25T08:17:29.464Z,62.41
2023-05-25T08:18:29.429Z,62.85
2023-05-25T08:19:29.434Z,63.12
2023-05-25T08:20:29.448Z,63.42
2023-05-25T08:21:29.396Z,62.45
2023-05-25T08:22:29.448Z,62.25
2023-05-25T08:23:29.384Z,61.95
2023-05-25T08:24:29.384Z,61.37
2023-05-25T08:25:29.363Z,62.82
2023-05-25T08:26:41.716Z,62.71
2023-05-25T08:27:35.183Z,62.31
2023-05-25T08:28:29.369Z,62.41
2023-05-25T08:29:29.341Z,62.41
2023-05-25T08:30:29.353Z,62.55
2023-05-25T08:31:29.400Z,61.24
2023-05-25T08:32:29.334Z,61.37
2023-05-25T08:33:29.312Z,62.14
2023-05-25T08:34:29.295Z,62.64
2023-05-25T08:35:29.299Z,62.82
2023-05-25T08:36:29.499Z,61.20
2023-05-25T08:37:29.289Z,62.21
2023-05-25T08:38:29.303Z,62.28
2023-05-25T08:39:29.267Z,62.28
2023-05-25T08:40:29.274Z,61.51
2023-05-25T08:41:29.883Z,62.04
2023-05-25T08:42:29.219Z,62.85
2023-05-25T08:43:29.265Z,62.57
2023-05-25T08:44:29.217Z,62.10
2023-05-25T08:45:35.521Z,61.99
2023-05-25T08:46:31.224Z,62.73
2023-05-25T08:47:29.338Z,63.64
2023-05-25T08:48:40.315Z,62.81
2023-05-25T08:49:31.196Z,62.81
2023-05-25T08:50:29.156Z,63.34
2023-05-25T08:51:29.144Z,63.44
2023-05-25T08:52:29.144Z,64.15
2023-05-25T08:53:29.802Z,64.45
2023-05-25T08:54:29.144Z,63.71
2023-05-25T08:55:29.124Z,61.99
2023-05-25T08:56:29.115Z,61.79
2023-05-25T08:57:29.114Z,62.70
2023-05-25T08:58:29.112Z,62.73
2023-05-25T08:59:29.084Z,62.60
2023-05-25T09:00:29.075Z,62.57
2023-05-25T09:01:29.086Z,61.83
2023-05-25T09:02:29.070Z,62.98
2023-05-25T09:03:29.186Z,61.13
2023-05-25T09:04:29.042Z,60.05
2023-05-25T09:05:29.023Z,60.05
2023-05-25T09:06:29.024Z,61.90
2023-05-25T09:07:29.020Z,62.19
2023-05-25T09:08:29.016Z,62.77
2023-05-25T09:09:29.037Z,61.39
2023-05-25T09:10:29.087Z,60.07
2023-05-25T09:11:38.963Z,61.32
2023-05-25T09:12:30.987Z,62.33
2023-05-25T09:13:28.977Z,63.01
2023-05-25T09:14:28.966Z,62.27
2023-05-25T09:15:28.960Z,60.98
2023-05-25T09:16:29.011Z,62.10
2023-05-25T09:17:29.953Z,61.99
2023-05-25T09:18:29.953Z,61.49
2023-05-25T09:19:28.920Z,61.99
2023-05-25T09:20:29.001Z,61.79
2023-05-25T09:21:28.913Z,60.98
2023-05-25T09:22:28.906Z,60.25
2023-05-25T09:23:28.885Z,61.16
2023-05-25T09:24:28.893Z,60.96
2023-05-25T09:25:28.887Z,60.25
2023-05-25T09:26:28.881Z,59.67
2023-05-25T09:27:28.883Z,58.99
2023-05-25T09:28:28.850Z,59.70
2023-05-25T09:29:28.844Z,60.38
2023-05-25T09:30:28.866Z,60.88
2023-05-25T09:31:28.866Z,61.41
2023-05-25T09:32:28.952Z,61.65
2023-05-25T09:33:28.806Z,60.71
2023-05-25T09:34:28.807Z,60.30
2023-05-25T09:35:28.861Z,60.10
2023-05-25T09:36:28.944Z,60.71
2023-05-25T09:37:28.969Z,61.62
2023-05-25T09:38:30.745Z,62.02
2023-05-25T09:39:31.561Z,61.92
2023-05-25T09:40:28.793Z,62.60
2023-05-25T09:41:28.751Z,61.62
2023-05-25T09:42:30.425Z,61.59
2023-05-25T09:43:40.716Z,61.19
2023-05-25T09:44:31.332Z,62.10
2023-05-25T09:45:30.397Z,60.78
2023-05-25T09:46:28.767Z,59.47
2023-05-25T09:47:28.747Z,60.00
2023-05-25T09:48:28.701Z,60.50
2023-05-25T09:49:28.698Z,61.01
2023-05-25T09:50:28.700Z,60.88
2023-05-25T09:51:28.680Z,61.49
2023-05-25T09:52:30.452Z,62.10
2023-05-25T09:53:28.672Z,61.52
2023-05-25T09:54:28.643Z,62.33
2023-05-25T09:55:36.909Z,61.59
2023-05-25T09:56:32.402Z,61.92
2023-05-25T09:57:28.621Z,61.62
2023-05-25T09:58:28.664Z,61.82
2023-05-25T09:59:28.625Z,61.52
2023-05-25T10:00:28.603Z,61.08
2023-05-25T10:01:28.653Z,60.20
2023-05-25T10:02:28.594Z,59.56
2023-05-25T10:03:28.583Z,59.16
2023-05-25T10:04:28.632Z,59.77
2023-05-25T10:05:28.570Z,61.19
2023-05-25T10:06:28.609Z,60.96
2023-05-25T10:07:28.587Z,61.56
2023-05-25T10:08:29.174Z,61.56
2023-05-25T10:09:29.538Z,60.52
2023-05-25T10:10:28.553Z,61.16
2023-05-25T10:11:28.505Z,61.25
2023-05-25T10:12:30.354Z,59.11
2023-05-25T10:14:35.416Z,59.61
2023-05-25T10:15:35.417Z,59.23
2023-05-25T10:16:35.510Z,60.75
2023-05-25T10:17:35.407Z,60.14
2023-05-25T10:18:35.378Z,60.27
2023-05-25T10:19:35.369Z,61.19
2023-05-25T10:20:35.502Z,60.05
2023-05-25T10:21:35.350Z,60.25
2023-05-25T10:22:35.352Z,60.05
2023-05-25T10:23:35.322Z,59.31
2023-05-25T10:24:35.313Z,59.14
2023-05-25T10:25:35.324Z,58.83
2023-05-25T10:26:35.299Z,59.03
2023-05-25T10:27:37.197Z,59.34
2023-05-25T10:28:36.406Z,59.03
2023-05-25T10:29:36.376Z,59.44
2023-05-25T10:30:36.370Z,59.56
2023-05-25T10:31:36.355Z,59.84
2023-05-25T10:32:36.400Z,60.25
2023-05-25T10:33:36.334Z,59.94
2023-05-25T10:34:36.333Z,59.84
2023-05-25T10:35:46.697Z,59.64
2023-05-25T10:36:37.327Z,59.44
2023-05-25T10:37:36.315Z,59.56
2023-05-25T10:38:36.333Z,60.38
2023-05-25T10:39:36.295Z,60.27
2023-05-25T10:40:36.308Z,59.94
2023-05-25T10:41:36.328Z,60.25
2023-05-25T10:42:36.262Z,60.14
2023-05-25T10:43:36.783Z,59.91
2023-05-25T10:44:36.264Z,59.61
2023-05-25T10:45:37.243Z,59.31
2023-05-25T10:46:37.233Z,59.21
2023-05-25T10:47:36.254Z,59.23
2023-05-25T10:48:36.248Z,60.35
2023-05-25T10:49:38.782Z,60.25
2023-05-25T10:50:36.257Z,60.02
2023-05-25T10:51:36.200Z,59.94
2023-05-25T10:52:36.181Z,60.25
2023-05-25T10:53:36.178Z,59.03
2023-05-25T10:54:36.222Z,59.03
2023-05-25T10:55:36.187Z,59.74
2023-05-25T10:56:36.167Z,60.35
2023-05-25T10:57:36.168Z,59.51
2023-05-25T10:58:36.145Z,59.41
2023-05-25T10:59:36.140Z,58.00
2023-05-25T11:00:36.221Z,59.31
2023-05-25T11:01:36.178Z,59.11
2023-05-25T11:02:36.178Z,59.45
2023-05-25T11:04:42.986Z,58.87
2023-05-25T11:05:43.084Z,58.98
2023-05-25T11:06:44.123Z,59.21
2023-05-25T11:07:44.064Z,59.61
2023-05-25T11:08:44.029Z,59.61
2023-05-25T11:09:44.101Z,59.03
2023-05-25T11:10:44.905Z,59.23
2023-05-25T11:11:44.032Z,59.00
2023-05-25T11:12:44.103Z,59.11
2023-05-25T11:13:43.998Z,58.20
2023-05-25T11:14:44.027Z,57.79
2023-05-25T11:15:44.141Z,58.91
2023-05-25T11:16:44.179Z,59.11
2023-05-25T11:17:43.982Z,58.98
2023-05-25T11:18:43.964Z,59.18
2023-05-25T11:19:43.984Z,58.98
2023-05-25T11:20:45.019Z,59.18
2023-05-25T11:21:43.973Z,60.09
2023-05-25T11:22:43.918Z,59.89
2023-05-25T11:23:44.912Z,59.18
2023-05-25T11:24:43.899Z,59.05
2023-05-25T11:25:44.160Z,58.27
2023-05-25T11:26:43.890Z,59.38
2023-05-25T11:27:43.889Z,59.61
2023-05-25T11:28:43.891Z,59.51
2023-05-25T11:29:43.863Z,59.28
2023-05-25T11:30:43.867Z,58.95
2023-05-25T11:31:44.052Z,58.87
2023-05-25T11:32:43.880Z,59.58
2023-05-25T11:33:43.827Z,59.28
2023-05-25T11:34:43.825Z,59.08
2023-05-25T11:35:44.077Z,58.27
2023-05-25T11:36:43.824Z,57.36
2023-05-25T11:37:43.817Z,57.36
2023-05-25T11:38:47.466Z,57.76
2023-05-25T11:39:44.798Z,57.34
2023-05-25T11:40:43.784Z,57.43
2023-05-25T11:41:43.770Z,57.43
2023-05-25T11:42:43.757Z,57.84
2023-05-25T11:43:43.744Z,57.54
2023-05-25T11:44:43.757Z,57.43
2023-05-25T11:45:43.734Z,57.84
2023-05-25T11:46:44.373Z,58.47
2023-05-25T11:47:43.808Z,58.87
2023-05-25T11:48:43.705Z,59.08
2023-05-25T11:49:43.698Z,57.56
2023-05-25T11:50:44.018Z,57.76
2023-05-25T11:51:43.694Z,58.25
2023-05-25T11:52:43.692Z,56.93
2023-05-25T11:53:43.699Z,57.81
2023-05-25T11:54:43.713Z,56.90
2023-05-25T11:55:43.668Z,57.58
2023-05-25T11:56:43.647Z,57.10
2023-05-25T11:57:43.850Z,57.91
2023-05-25T11:58:43.636Z,58.04
2023-05-25T11:59:43.639Z,58.75
2023-05-25T12:00:43.988Z,58.34
2023-05-25T12:01:43.637Z,58.54
2023-05-25T12:02:43.705Z,57.74
2023-05-25T12:03:43.688Z,57.74
2023-05-25T12:04:43.732Z,57.81
2023-05-25T12:05:43.714Z,58.32
2023-05-25T12:06:43.594Z,58.32
2023-05-25T12:07:43.562Z,56.81
2023-05-25T12:08:43.547Z,56.10
2023-05-25T12:09:43.555Z,56.20
2023-05-25T12:10:43.698Z,57.03
2023-05-25T12:11:43.529Z,57.03
2023-05-25T12:12:43.525Z,56.93
2023-05-25T12:13:43.530Z,56.43
2023-05-25T12:14:43.533Z,57.23
2023-05-25T12:15:43.792Z,58.17
2023-05-25T12:16:43.541Z,57.76
2023-05-25T12:18:16.364Z,58.14
2023-05-25T12:18:43.468Z,57.23
2023-05-25T12:19:43.458Z,57.34
2023-05-25T12:20:43.583Z,56.83
2023-05-25T12:21:44.433Z,58.14
2023-05-25T12:22:43.429Z,58.45
2023-05-25T12:23:44.428Z,58.42
2023-05-25T12:24:43.451Z,57.71
2023-05-25T12:25:50.681Z,57.41
2023-05-25T12:26:45.407Z,57.51
2023-05-25T12:27:43.390Z,57.74
2023-05-25T12:28:43.665Z,58.14
2023-05-25T12:29:43.394Z,58.42
2023-05-25T12:30:43.444Z,57.84
2023-05-25T12:31:44.360Z,58.12
2023-05-25T12:32:43.412Z,57.31
2023-05-25T12:33:43.353Z,56.27
2023-05-25T12:34:43.336Z,56.68
2023-05-25T12:35:43.508Z,54.86
2023-05-25T12:36:43.335Z,55.36
2023-05-25T12:37:43.318Z,55.84
2023-05-25T12:38:43.305Z,55.24
2023-05-25T12:39:43.315Z,55.16
2023-05-25T12:40:43.607Z,55.97
2023-05-25T12:41:43.479Z,53.88
2023-05-25T12:42:43.275Z,54.89
2023-05-25T12:43:43.335Z,55.39
2023-05-25T12:44:43.277Z,54.99
2023-05-25T12:45:43.466Z,55.90
2023-05-25T12:46:43.374Z,55.90
2023-05-25T12:47:43.273Z,55.59
2023-05-25T12:48:43.981Z,56.52
2023-05-25T12:49:43.259Z,56.90
2023-05-25T12:50:43.652Z,56.60
2023-05-25T12:51:43.212Z,56.70
2023-05-25T12:52:43.192Z,56.81
2023-05-25T12:53:43.207Z,56.68
2023-05-25T12:54:43.188Z,56.90
2023-05-25T12:55:43.199Z,55.87